MDT,Max TemperatureF,Mean TemperatureF,Min TemperatureF,Max Dew PointF,MeanDew PointF,Min DewpointF,Max Humidity, Mean Humidity, Min Humidity, Max Sea Level PressureIn, Mean Sea Level PressureIn, Min Sea Level PressureIn, Max VisibilityMiles, Mean VisibilityMiles, Min VisibilityMiles, Max Wind SpeedMPH, Mean Wind SpeedMPH, Max Gust SpeedMPH,PrecipitationIn, CloudCover, Events, WindDirDegrees
2013-6-1,62,53,44,45,39,35,93,66,39,30.10,30.07,29.92,,,,30,13,36,0.00,,,344
2013-6-2,70,56,42,48,43,37,89,64,39,30.08,29.92,29.74,,,,24,14,31,0.00,,,123
2013-6-3,69,59,48,49,44,38,77,58,39,29.82,29.68,29.57,,,,33,19,41,0.00,,,289
2013-6-4,53,50,47,44,42,40,93,82,71,30.13,29.99,29.81,,,,37,25,44,0.00,,,296
2013-6-5,61,54,47,44,41,38,86,66,46,30.14,30.11,30.06,,,,15,11,20,0.00,,,347
2013-6-6,72,58,43,51,45,42,100,68,35,30.05,30.00,29.96,,,,10,5,15,0.00,,,99
2013-6-7,80,65,50,56,50,45,93,64,35,29.97,29.78,29.60,,,,10,7,14,0.05,,,163
2013-6-8,71,61,50,56,51,46,100,73,45,29.87,29.70,29.57,,,,37,17,47,0.23,,,313
2013-6-9,78,62,46,54,48,43,93,66,38,29.87,29.79,29.65,,,,20,9,24,0.00,,,193
2013-6-10,79,68,57,57,52,50,77,57,37,29.84,29.70,29.61,,,,20,11,24,0.06,,,49
2013-6-11,77,65,52,53,49,43,89,65,41,29.87,29.80,29.76,,,,31,15,36,0.01,,,92
2013-6-12,72,62,51,54,51,49,100,75,49,30.12,30.01,29.87,,,,30,13,36,0.03,,,108
2013-6-13,76,65,53,55,52,50,89,68,46,30.03,29.88,29.71,,,,39,22,47,0.00,,,130
2013-6-14,75,65,54,55,50,43,87,63,38,29.95,29.80,29.61,,,,29,14,35,0.01,,,298
2013-6-15,76,61,46,48,41,36,83,53,23,29.96,29.93,29.88,,,,10,11,13,0.00,,,273
2013-6-16,78,64,50,52,44,38,77,51,25,30.01,29.94,29.90,,,,21,9,25,0.00,,,336
2013-6-17,77,63,48,52,48,45,93,65,36,30.06,30.03,29.99,,,,15,7,20,0.00,,,351
2013-6-18,83,67,50,58,53,47,89,62,34,30.02,29.91,29.75,,,,24,12,29,0.00,,,113
2013-6-19,86,73,59,63,57,51,84,57,30,29.74,29.61,29.43,,,,38,21,47,0.00,,,131
2013-6-20,83,71,59,62,52,44,73,51,28,29.84,29.69,29.43,,,,36,17,43,0.00,,,326
2013-6-21,65,60,54,61,57,53,100,86,72,29.93,29.85,29.77,,,,37,14,45,0.98,,,29
2013-6-22,72,61,50,61,56,49,100,81,61,29.92,29.83,29.74,,,,17,9,20,0.33,,,354
2013-6-23,75,62,49,51,49,46,100,68,36,29.84,29.79,29.73,,,,10,11,14,0.00,,,264
2013-6-24,84,70,56,68,60,49,87,69,51,29.73,29.60,29.52,,,,18,9,23,0.00,,,127
2013-6-25,81,69,56,63,55,49,78,60,42,29.73,29.61,29.50,,,,29,10,33,0.00,,,285
2013-6-26,82,69,56,59,54,49,93,63,33,29.93,29.81,29.73,,,,26,11,31,0.00,,,295
2013-6-27,83,70,56,57,54,49,78,58,37,30.08,30.00,29.94,,,,22,13,28,0.00,,,307
2013-6-28,83,69,54,57,53,49,89,63,37,30.13,30.09,30.05,,,,23,11,28,0.00,,,324
2013-6-29,81,67,53,55,50,44,89,60,31,30.11,30.08,30.03,,,,15,7,24,0.00,,,1
2013-6-30,80,68,55,57,53,48,93,64,35,30.12,30.09,30.07,,,,14,7,17,0.00,,,73